Chandalar Lake, Alaska
Current Conditions -  °F | °C
As of 2:56 PM on Monday 20 Oct 2014 (Local Time) from PARC Reporting Station
Overcast Overcast  
Wind Chill: 17°   Ceiling: 2900
Heat Index: 25°   Visibility: 5mi
Dew Point: 21°   Wind: 7mph
Humidity: 86%   Direction: 30°NNE
Pressure: 29.41"   Gusts: NA
Location:  67.5°N, 148.48°W
Report Text: PARC 202256Z AUTO 03006KT 5SM SCT022 OVC029 M04/M06 A2941 RMK AO1
Loading
Personal Weather Stations






























Interactive Weather Map
Tropical Storm Tracking
New forecast layout! Learn more

10-Day Weather Forecast

Advertisements
Track Severe Weather on mobile